sensor_id;sensor_type;location;lat;lon;timestamp;P1;durP1;ratioP1;P2;durP2;ratioP2
64075;SDS011;50327;51.328;12.324;2023-05-07T00:02:04;14.32;;;9.13;;
64075;SDS011;50327;51.328;12.324;2023-05-07T00:04:29;16.67;;;8.70;;
64075;SDS011;50327;51.328;12.324;2023-05-07T00:07:00;14.20;;;7.85;;
64075;SDS011;50327;51.328;12.324;2023-05-07T00:09:26;18.45;;;8.10;;
64075;SDS011;50327;51.328;12.324;2023-05-07T00:11:51;13.55;;;7.90;;
64075;SDS011;50327;51.328;12.324;2023-05-07T00:14:16;16.65;;;8.07;;
64075;SDS011;50327;51.328;12.324;2023-05-07T00:16:41;17.35;;;7.45;;
64075;SDS011;50327;51.328;12.324;2023-05-07T00:19:07;15.00;;;7.93;;
64075;SDS011;50327;51.328;12.324;2023-05-07T00:21:32;15.57;;;7.60;;
64075;SDS011;50327;51.328;12.324;2023-05-07T00:23:57;13.52;;;7.32;;
64075;SDS011;50327;51.328;12.324;2023-05-07T00:26:22;15.05;;;8.20;;
64075;SDS011;50327;51.328;12.324;2023-05-07T00:28:48;17.15;;;7.57;;
64075;SDS011;50327;51.328;12.324;2023-05-07T00:31:13;12.93;;;7.55;;
64075;SDS011;50327;51.328;12.324;2023-05-07T00:33:38;15.73;;;8.07;;
64075;SDS011;50327;51.328;12.324;2023-05-07T00:36:04;9.98;;;6.28;;
64075;SDS011;50327;51.328;12.324;2023-05-07T00:38:29;15.70;;;6.78;;
64075;SDS011;50327;51.328;12.324;2023-05-07T00:40:54;15.50;;;6.70;;
64075;SDS011;50327;51.328;12.324;2023-05-07T00:43:19;11.68;;;6.82;;
64075;SDS011;50327;51.328;12.324;2023-05-07T00:45:45;11.18;;;6.70;;
64075;SDS011;50327;51.328;12.324;2023-05-07T00:48:10;13.23;;;6.70;;
64075;SDS011;50327;51.328;12.324;2023-05-07T00:50:36;13.63;;;6.63;;
64075;SDS011;50327;51.328;12.324;2023-05-07T00:53:01;17.23;;;7.05;;
64075;SDS011;50327;51.328;12.324;2023-05-07T00:55:27;14.80;;;7.22;;
64075;SDS011;50327;51.328;12.324;2023-05-07T00:57:53;15.52;;;7.72;;
64075;SDS011;50327;51.328;12.324;2023-05-07T01:00:18;14.32;;;8.25;;
64075;SDS011;50327;51.328;12.324;2023-05-07T01:02:43;12.52;;;7.40;;
64075;SDS011;50327;51.328;12.324;2023-05-07T01:05:09;11.45;;;7.18;;
64075;SDS011;50327;51.328;12.324;2023-05-07T01:07:35;14.63;;;6.75;;
64075;SDS011;50327;51.328;12.324;2023-05-07T01:10:01;11.95;;;7.10;;
64075;SDS011;50327;51.328;12.324;2023-05-07T01:12:28;14.60;;;7.72;;
64075;SDS011;50327;51.328;12.324;2023-05-07T01:14:53;13.75;;;7.72;;
64075;SDS011;50327;51.328;12.324;2023-05-07T01:17:19;14.05;;;8.07;;
64075;SDS011;50327;51.328;12.324;2023-05-07T01:19:44;17.05;;;8.02;;
64075;SDS011;50327;51.328;12.324;2023-05-07T01:22:10;13.43;;;7.82;;
64075;SDS011;50327;51.328;12.324;2023-05-07T01:24:39;16.92;;;8.80;;
64075;SDS011;50327;51.328;12.324;2023-05-07T01:27:05;15.82;;;9.35;;
64075;SDS011;50327;51.328;12.324;2023-05-07T01:29:30;13.75;;;8.50;;
64075;SDS011;50327;51.328;12.324;2023-05-07T01:31:59;16.25;;;9.27;;
64075;SDS011;50327;51.328;12.324;2023-05-07T01:34:25;13.18;;;8.30;;
64075;SDS011;50327;51.328;12.324;2023-05-07T01:36:52;16.35;;;9.20;;
64075;SDS011;50327;51.328;12.324;2023-05-07T01:39:18;16.10;;;8.35;;
64075;SDS011;50327;51.328;12.324;2023-05-07T01:41:43;14.70;;;7.97;;
64075;SDS011;50327;51.328;12.324;2023-05-07T01:44:09;21.42;;;9.23;;
64075;SDS011;50327;51.328;12.324;2023-05-07T01:46:36;17.42;;;9.05;;
64075;SDS011;50327;51.328;12.324;2023-05-07T01:49:01;19.92;;;9.95;;
64075;SDS011;50327;51.328;12.324;2023-05-07T01:51:27;17.98;;;10.00;;
64075;SDS011;50327;51.328;12.324;2023-05-07T01:53:52;22.05;;;9.63;;
64075;SDS011;50327;51.328;12.324;2023-05-07T01:56:18;17.90;;;9.60;;
64075;SDS011;50327;51.328;12.324;2023-05-07T01:58:46;15.82;;;10.15;;
64075;SDS011;50327;51.328;12.324;2023-05-07T02:01:12;19.08;;;10.27;;
64075;SDS011;50327;51.328;12.324;2023-05-07T02:03:38;22.27;;;10.95;;
64075;SDS011;50327;51.328;12.324;2023-05-07T02:06:03;17.00;;;9.98;;
64075;SDS011;50327;51.328;12.324;2023-05-07T02:08:28;19.13;;;10.35;;
64075;SDS011;50327;51.328;12.324;2023-05-07T02:10:54;19.55;;;11.48;;
64075;SDS011;50327;51.328;12.324;2023-05-07T02:13:19;20.15;;;11.90;;
64075;SDS011;50327;51.328;12.324;2023-05-07T02:15:44;19.55;;;11.02;;
64075;SDS011;50327;51.328;12.324;2023-05-07T02:18:14;19.17;;;12.18;;
64075;SDS011;50327;51.328;12.324;2023-05-07T02:20:39;21.90;;;12.45;;
64075;SDS011;50327;51.328;12.324;2023-05-07T02:23:04;25.75;;;12.18;;
64075;SDS011;50327;51.328;12.324;2023-05-07T02:25:30;19.85;;;11.73;;
64075;SDS011;50327;51.328;12.324;2023-05-07T02:27:55;21.90;;;11.82;;
64075;SDS011;50327;51.328;12.324;2023-05-07T02:30:20;21.15;;;12.30;;
64075;SDS011;50327;51.328;12.324;2023-05-07T02:32:46;21.58;;;10.93;;
64075;SDS011;50327;51.328;12.324;2023-05-07T02:35:11;17.45;;;10.65;;
64075;SDS011;50327;51.328;12.324;2023-05-07T02:37:37;21.77;;;11.57;;
64075;SDS011;50327;51.328;12.324;2023-05-07T02:40:02;18.83;;;12.07;;
64075;SDS011;50327;51.328;12.324;2023-05-07T02:42:29;20.35;;;11.35;;
64075;SDS011;50327;51.328;12.324;2023-05-07T02:44:54;19.75;;;11.05;;
64075;SDS011;50327;51.328;12.324;2023-05-07T02:47:19;20.90;;;10.85;;
64075;SDS011;50327;51.328;12.324;2023-05-07T02:49:45;22.80;;;10.60;;
64075;SDS011;50327;51.328;12.324;2023-05-07T02:52:10;18.80;;;11.43;;
64075;SDS011;50327;51.328;12.324;2023-05-07T02:54:35;17.75;;;10.68;;
64075;SDS011;50327;51.328;12.324;2023-05-07T02:57:00;19.75;;;11.82;;
64075;SDS011;50327;51.328;12.324;2023-05-07T02:59:27;19.88;;;11.63;;
64075;SDS011;50327;51.328;12.324;2023-05-07T03:01:52;20.80;;;11.02;;
64075;SDS011;50327;51.328;12.324;2023-05-07T03:04:17;25.98;;;12.95;;
64075;SDS011;50327;51.328;12.324;2023-05-07T03:06:43;19.17;;;11.50;;
64075;SDS011;50327;51.328;12.324;2023-05-07T03:09:08;19.40;;;12.10;;
64075;SDS011;50327;51.328;12.324;2023-05-07T03:11:33;17.58;;;11.05;;
64075;SDS011;50327;51.328;12.324;2023-05-07T03:13:59;21.70;;;11.82;;
64075;SDS011;50327;51.328;12.324;2023-05-07T03:16:24;17.35;;;11.93;;
64075;SDS011;50327;51.328;12.324;2023-05-07T03:18:52;18.88;;;11.55;;
64075;SDS011;50327;51.328;12.324;2023-05-07T03:21:17;20.67;;;11.73;;
64075;SDS011;50327;51.328;12.324;2023-05-07T03:23:43;15.88;;;10.77;;
64075;SDS011;50327;51.328;12.324;2023-05-07T03:26:08;19.27;;;11.68;;
64075;SDS011;50327;51.328;12.324;2023-05-07T03:28:33;18.65;;;11.68;;
64075;SDS011;50327;51.328;12.324;2023-05-07T03:30:58;17.73;;;11.35;;
64075;SDS011;50327;51.328;12.324;2023-05-07T03:33:24;21.30;;;12.05;;
64075;SDS011;50327;51.328;12.324;2023-05-07T03:35:49;19.73;;;11.68;;
64075;SDS011;50327;51.328;12.324;2023-05-07T03:38:14;19.05;;;11.98;;
64075;SDS011;50327;51.328;12.324;2023-05-07T03:40:40;18.73;;;11.32;;
64075;SDS011;50327;51.328;12.324;2023-05-07T03:43:05;20.00;;;11.38;;
64075;SDS011;50327;51.328;12.324;2023-05-07T03:45:30;22.10;;;11.38;;
64075;SDS011;50327;51.328;12.324;2023-05-07T03:47:55;18.88;;;11.60;;
64075;SDS011;50327;51.328;12.324;2023-05-07T03:50:20;19.55;;;11.15;;
64075;SDS011;50327;51.328;12.324;2023-05-07T03:52:46;18.73;;;11.05;;
64075;SDS011;50327;51.328;12.324;2023-05-07T03:55:11;18.83;;;11.50;;
64075;SDS011;50327;51.328;12.324;2023-05-07T03:57:36;22.83;;;11.45;;
64075;SDS011;50327;51.328;12.324;2023-05-07T04:00:01;20.77;;;12.10;;
64075;SDS011;50327;51.328;12.324;2023-05-07T04:02:28;17.27;;;10.25;;
64075;SDS011;50327;51.328;12.324;2023-05-07T04:04:53;20.10;;;11.27;;
64075;SDS011;50327;51.328;12.324;2023-05-07T04:07:19;19.85;;;11.80;;
64075;SDS011;50327;51.328;12.324;2023-05-07T04:09:44;19.90;;;10.98;;
64075;SDS011;50327;51.328;12.324;2023-05-07T04:12:09;17.95;;;11.05;;
64075;SDS011;50327;51.328;12.324;2023-05-07T04:14:35;23.30;;;12.63;;
64075;SDS011;50327;51.328;12.324;2023-05-07T04:17:00;18.70;;;11.35;;
64075;SDS011;50327;51.328;12.324;2023-05-07T04:19:25;19.55;;;11.27;;
64075;SDS011;50327;51.328;12.324;2023-05-07T04:21:50;21.70;;;12.25;;
64075;SDS011;50327;51.328;12.324;2023-05-07T04:24:16;17.33;;;10.90;;
64075;SDS011;50327;51.328;12.324;2023-05-07T04:26:41;19.60;;;11.70;;
64075;SDS011;50327;51.328;12.324;2023-05-07T04:29:07;21.88;;;11.60;;
64075;SDS011;50327;51.328;12.324;2023-05-07T04:31:32;22.25;;;11.38;;
64075;SDS011;50327;51.328;12.324;2023-05-07T04:33:57;19.58;;;12.00;;
64075;SDS011;50327;51.328;12.324;2023-05-07T04:36:23;18.67;;;10.98;;
64075;SDS011;50327;51.328;12.324;2023-05-07T04:38:51;26.03;;;12.80;;
64075;SDS011;50327;51.328;12.324;2023-05-07T04:41:16;19.38;;;10.30;;
64075;SDS011;50327;51.328;12.324;2023-05-07T04:43:41;21.17;;;11.30;;
64075;SDS011;50327;51.328;12.324;2023-05-07T04:46:07;18.50;;;10.75;;
64075;SDS011;50327;51.328;12.324;2023-05-07T04:48:33;20.95;;;11.50;;
64075;SDS011;50327;51.328;12.324;2023-05-07T04:50:58;18.67;;;10.93;;
64075;SDS011;50327;51.328;12.324;2023-05-07T04:53:23;18.23;;;11.07;;
64075;SDS011;50327;51.328;12.324;2023-05-07T04:55:48;23.15;;;11.82;;
64075;SDS011;50327;51.328;12.324;2023-05-07T04:58:14;21.35;;;11.85;;
64075;SDS011;50327;51.328;12.324;2023-05-07T05:00:41;23.33;;;11.35;;
64075;SDS011;50327;51.328;12.324;2023-05-07T05:03:07;18.65;;;10.95;;
64075;SDS011;50327;51.328;12.324;2023-05-07T05:05:32;18.98;;;10.68;;
64075;SDS011;50327;51.328;12.324;2023-05-07T05:07:58;22.00;;;11.35;;
64075;SDS011;50327;51.328;12.324;2023-05-07T05:10:23;18.58;;;10.02;;
64075;SDS011;50327;51.328;12.324;2023-05-07T05:12:48;19.35;;;10.98;;
64075;SDS011;50327;51.328;12.324;2023-05-07T05:15:13;21.27;;;11.38;;
64075;SDS011;50327;51.328;12.324;2023-05-07T05:17:39;19.25;;;10.18;;
64075;SDS011;50327;51.328;12.324;2023-05-07T05:20:05;16.52;;;9.32;;
64075;SDS011;50327;51.328;12.324;2023-05-07T05:22:31;19.00;;;10.15;;
64075;SDS011;50327;51.328;12.324;2023-05-07T05:24:56;18.33;;;9.77;;
64075;SDS011;50327;51.328;12.324;2023-05-07T05:27:21;21.67;;;9.95;;
64075;SDS011;50327;51.328;12.324;2023-05-07T05:29:46;18.48;;;9.20;;
64075;SDS011;50327;51.328;12.324;2023-05-07T05:32:12;13.77;;;8.02;;
64075;SDS011;50327;51.328;12.324;2023-05-07T05:34:37;14.02;;;8.52;;
64075;SDS011;50327;51.328;12.324;2023-05-07T05:37:02;16.83;;;8.52;;
64075;SDS011;50327;51.328;12.324;2023-05-07T05:39:27;19.33;;;8.43;;
64075;SDS011;50327;51.328;12.324;2023-05-07T05:41:53;14.88;;;7.97;;
64075;SDS011;50327;51.328;12.324;2023-05-07T05:44:18;15.25;;;8.00;;
64075;SDS011;50327;51.328;12.324;2023-05-07T05:46:43;14.45;;;8.18;;
64075;SDS011;50327;51.328;12.324;2023-05-07T05:49:08;14.98;;;7.97;;
64075;SDS011;50327;51.328;12.324;2023-05-07T05:51:34;16.95;;;8.23;;
64075;SDS011;50327;51.328;12.324;2023-05-07T05:53:59;13.05;;;7.80;;
64075;SDS011;50327;51.328;12.324;2023-05-07T05:56:24;18.60;;;8.50;;
64075;SDS011;50327;51.328;12.324;2023-05-07T05:58:50;12.85;;;8.07;;
64075;SDS011;50327;51.328;12.324;2023-05-07T06:01:16;16.88;;;9.23;;
64075;SDS011;50327;51.328;12.324;2023-05-07T06:03:42;17.08;;;7.15;;
64075;SDS011;50327;51.328;12.324;2023-05-07T06:06:07;16.38;;;10.02;;
64075;SDS011;50327;51.328;12.324;2023-05-07T06:08:32;13.05;;;7.70;;
64075;SDS011;50327;51.328;12.324;2023-05-07T06:10:58;14.15;;;7.53;;
64075;SDS011;50327;51.328;12.324;2023-05-07T06:13:23;16.15;;;7.63;;
64075;SDS011;50327;51.328;12.324;2023-05-07T06:15:49;15.25;;;7.80;;
64075;SDS011;50327;51.328;12.324;2023-05-07T06:18:14;15.57;;;7.47;;
64075;SDS011;50327;51.328;12.324;2023-05-07T06:20:39;15.70;;;7.47;;
64075;SDS011;50327;51.328;12.324;2023-05-07T06:23:04;17.77;;;8.02;;
64075;SDS011;50327;51.328;12.324;2023-05-07T06:25:30;16.10;;;7.80;;
64075;SDS011;50327;51.328;12.324;2023-05-07T06:27:55;12.88;;;8.13;;
64075;SDS011;50327;51.328;12.324;2023-05-07T06:30:20;15.45;;;8.07;;
64075;SDS011;50327;51.328;12.324;2023-05-07T06:32:45;16.10;;;8.82;;
64075;SDS011;50327;51.328;12.324;2023-05-07T06:35:11;15.45;;;9.20;;
64075;SDS011;50327;51.328;12.324;2023-05-07T06:37:36;16.83;;;8.13;;
64075;SDS011;50327;51.328;12.324;2023-05-07T06:40:03;13.98;;;7.68;;
64075;SDS011;50327;51.328;12.324;2023-05-07T06:42:29;14.93;;;8.65;;
64075;SDS011;50327;51.328;12.324;2023-05-07T06:44:54;17.98;;;9.43;;
64075;SDS011;50327;51.328;12.324;2023-05-07T06:47:20;14.55;;;7.68;;
64075;SDS011;50327;51.328;12.324;2023-05-07T06:49:45;18.13;;;8.73;;
64075;SDS011;50327;51.328;12.324;2023-05-07T06:52:10;16.25;;;7.97;;
64075;SDS011;50327;51.328;12.324;2023-05-07T06:54:35;13.57;;;7.60;;
64075;SDS011;50327;51.328;12.324;2023-05-07T06:57:00;14.15;;;7.75;;
64075;SDS011;50327;51.328;12.324;2023-05-07T06:59:26;15.57;;;8.43;;
64075;SDS011;50327;51.328;12.324;2023-05-07T07:01:51;16.30;;;8.20;;
64075;SDS011;50327;51.328;12.324;2023-05-07T07:04:16;14.15;;;8.13;;
64075;SDS011;50327;51.328;12.324;2023-05-07T07:06:41;15.10;;;8.65;;
64075;SDS011;50327;51.328;12.324;2023-05-07T07:09:07;15.40;;;7.97;;
64075;SDS011;50327;51.328;12.324;2023-05-07T07:11:32;15.20;;;7.72;;
64075;SDS011;50327;51.328;12.324;2023-05-07T07:13:57;12.70;;;7.47;;
64075;SDS011;50327;51.328;12.324;2023-05-07T07:16:23;14.25;;;8.18;;
64075;SDS011;50327;51.328;12.324;2023-05-07T07:18:49;14.23;;;8.10;;
64075;SDS011;50327;51.328;12.324;2023-05-07T07:21:14;13.65;;;7.20;;
64075;SDS011;50327;51.328;12.324;2023-05-07T07:23:39;13.57;;;8.02;;
64075;SDS011;50327;51.328;12.324;2023-05-07T07:26:05;13.38;;;7.35;;
64075;SDS011;50327;51.328;12.324;2023-05-07T07:28:31;16.35;;;8.13;;
64075;SDS011;50327;51.328;12.324;2023-05-07T07:30:57;13.43;;;7.53;;
64075;SDS011;50327;51.328;12.324;2023-05-07T07:33:22;14.00;;;5.93;;
64075;SDS011;50327;51.328;12.324;2023-05-07T07:35:47;13.00;;;6.93;;
64075;SDS011;50327;51.328;12.324;2023-05-07T07:38:12;13.23;;;6.65;;
64075;SDS011;50327;51.328;12.324;2023-05-07T07:40:38;9.90;;;4.95;;
64075;SDS011;50327;51.328;12.324;2023-05-07T07:43:03;14.13;;;6.85;;
64075;SDS011;50327;51.328;12.324;2023-05-07T07:45:29;13.48;;;6.60;;
64075;SDS011;50327;51.328;12.324;2023-05-07T07:47:55;10.07;;;5.57;;
64075;SDS011;50327;51.328;12.324;2023-05-07T07:50:20;14.18;;;6.10;;
64075;SDS011;50327;51.328;12.324;2023-05-07T07:52:45;10.10;;;5.45;;
64075;SDS011;50327;51.328;12.324;2023-05-07T07:55:11;9.98;;;5.95;;
64075;SDS011;50327;51.328;12.324;2023-05-07T07:57:37;9.35;;;5.75;;
64075;SDS011;50327;51.328;12.324;2023-05-07T08:00:02;10.88;;;5.53;;
64075;SDS011;50327;51.328;12.324;2023-05-07T08:02:27;8.88;;;5.22;;
64075;SDS011;50327;51.328;12.324;2023-05-07T08:04:53;8.85;;;5.43;;
64075;SDS011;50327;51.328;12.324;2023-05-07T08:07:18;9.38;;;6.00;;
64075;SDS011;50327;51.328;12.324;2023-05-07T08:09:45;10.80;;;5.50;;
64075;SDS011;50327;51.328;12.324;2023-05-07T08:12:10;10.10;;;6.25;;
64075;SDS011;50327;51.328;12.324;2023-05-07T08:14:36;9.23;;;5.57;;
64075;SDS011;50327;51.328;12.324;2023-05-07T08:17:02;8.95;;;5.57;;
64075;SDS011;50327;51.328;12.324;2023-05-07T08:19:27;11.45;;;5.65;;
64075;SDS011;50327;51.328;12.324;2023-05-07T08:21:52;9.90;;;5.70;;
64075;SDS011;50327;51.328;12.324;2023-05-07T08:24:17;8.73;;;5.10;;
64075;SDS011;50327;51.328;12.324;2023-05-07T08:26:43;9.75;;;5.70;;
64075;SDS011;50327;51.328;12.324;2023-05-07T08:29:08;8.20;;;4.90;;
64075;SDS011;50327;51.328;12.324;2023-05-07T08:31:34;11.23;;;5.30;;
64075;SDS011;50327;51.328;12.324;2023-05-07T08:33:59;8.05;;;4.97;;
64075;SDS011;50327;51.328;12.324;2023-05-07T08:36:24;8.55;;;5.13;;
64075;SDS011;50327;51.328;12.324;2023-05-07T08:38:50;11.20;;;5.07;;
64075;SDS011;50327;51.328;12.324;2023-05-07T08:41:16;9.35;;;4.53;;
64075;SDS011;50327;51.328;12.324;2023-05-07T08:43:41;7.47;;;4.10;;
64075;SDS011;50327;51.328;12.324;2023-05-07T08:46:06;8.98;;;4.28;;
64075;SDS011;50327;51.328;12.324;2023-05-07T08:48:33;7.70;;;4.32;;
64075;SDS011;50327;51.328;12.324;2023-05-07T08:50:59;8.02;;;3.92;;
64075;SDS011;50327;51.328;12.324;2023-05-07T08:53:24;7.28;;;4.18;;
64075;SDS011;50327;51.328;12.324;2023-05-07T08:55:49;7.65;;;4.32;;
64075;SDS011;50327;51.328;12.324;2023-05-07T08:58:15;10.35;;;5.20;;
64075;SDS011;50327;51.328;12.324;2023-05-07T09:00:40;8.32;;;4.60;;
64075;SDS011;50327;51.328;12.324;2023-05-07T09:03:06;8.38;;;4.38;;
64075;SDS011;50327;51.328;12.324;2023-05-07T09:05:31;8.10;;;4.40;;
64075;SDS011;50327;51.328;12.324;2023-05-07T09:08:01;7.85;;;4.10;;
64075;SDS011;50327;51.328;12.324;2023-05-07T09:10:27;8.80;;;4.75;;
64075;SDS011;50327;51.328;12.324;2023-05-07T09:12:52;9.27;;;5.55;;
64075;SDS011;50327;51.328;12.324;2023-05-07T09:15:17;7.55;;;4.70;;
64075;SDS011;50327;51.328;12.324;2023-05-07T09:17:43;8.63;;;4.45;;
64075;SDS011;50327;51.328;12.324;2023-05-07T09:20:08;6.82;;;4.20;;
64075;SDS011;50327;51.328;12.324;2023-05-07T09:22:34;7.28;;;4.53;;
64075;SDS011;50327;51.328;12.324;2023-05-07T09:25:01;8.18;;;4.45;;
64075;SDS011;50327;51.328;12.324;2023-05-07T09:27:26;8.70;;;4.40;;
64075;SDS011;50327;51.328;12.324;2023-05-07T09:29:51;9.68;;;4.82;;
64075;SDS011;50327;51.328;12.324;2023-05-07T09:32:17;7.80;;;4.35;;
64075;SDS011;50327;51.328;12.324;2023-05-07T09:34:42;8.35;;;4.88;;
64075;SDS011;50327;51.328;12.324;2023-05-07T09:37:07;7.90;;;4.60;;
64075;SDS011;50327;51.328;12.324;2023-05-07T09:39:42;8.60;;;4.68;;
64075;SDS011;50327;51.328;12.324;2023-05-07T09:42:08;8.30;;;4.50;;
64075;SDS011;50327;51.328;12.324;2023-05-07T09:44:33;9.65;;;4.90;;
64075;SDS011;50327;51.328;12.324;2023-05-07T09:46:59;9.00;;;4.88;;
64075;SDS011;50327;51.328;12.324;2023-05-07T09:49:24;9.07;;;5.10;;
64075;SDS011;50327;51.328;12.324;2023-05-07T09:51:54;8.07;;;4.97;;
64075;SDS011;50327;51.328;12.324;2023-05-07T09:54:20;7.20;;;4.40;;
64075;SDS011;50327;51.328;12.324;2023-05-07T09:56:45;6.68;;;4.63;;
64075;SDS011;50327;51.328;12.324;2023-05-07T09:59:12;8.32;;;4.72;;
64075;SDS011;50327;51.328;12.324;2023-05-07T10:01:38;6.78;;;4.38;;
64075;SDS011;50327;51.328;12.324;2023-05-07T10:04:03;8.48;;;4.93;;
64075;SDS011;50327;51.328;12.324;2023-05-07T10:06:29;6.88;;;4.50;;
64075;SDS011;50327;51.328;12.324;2023-05-07T10:08:55;7.32;;;4.68;;
64075;SDS011;50327;51.328;12.324;2023-05-07T10:11:21;8.30;;;4.57;;
64075;SDS011;50327;51.328;12.324;2023-05-07T10:13:47;7.28;;;4.10;;
64075;SDS011;50327;51.328;12.324;2023-05-07T10:16:12;9.10;;;4.60;;
64075;SDS011;50327;51.328;12.324;2023-05-07T10:18:38;11.23;;;5.00;;
64075;SDS011;50327;51.328;12.324;2023-05-07T10:21:13;6.93;;;4.25;;
64075;SDS011;50327;51.328;12.324;2023-05-07T10:23:40;7.68;;;4.00;;
64075;SDS011;50327;51.328;12.324;2023-05-07T10:26:06;10.20;;;4.82;;
64075;SDS011;50327;51.328;12.324;2023-05-07T10:28:34;7.53;;;4.00;;
64075;SDS011;50327;51.328;12.324;2023-05-07T10:33:30;8.07;;;4.32;;
64075;SDS011;50327;51.328;12.324;2023-05-07T10:38:21;7.50;;;3.90;;
64075;SDS011;50327;51.328;12.324;2023-05-07T10:40:46;6.43;;;3.88;;
64075;SDS011;50327;51.328;12.324;2023-05-07T10:43:12;7.32;;;3.72;;
64075;SDS011;50327;51.328;12.324;2023-05-07T10:45:37;8.05;;;4.05;;
64075;SDS011;50327;51.328;12.324;2023-05-07T10:50:31;7.27;;;4.07;;
64075;SDS011;50327;51.328;12.324;2023-05-07T10:53:20;7.10;;;3.38;;
64075;SDS011;50327;51.328;12.324;2023-05-07T10:55:46;6.68;;;3.92;;
64075;SDS011;50327;51.328;12.324;2023-05-07T10:58:32;6.32;;;3.53;;
64075;SDS011;50327;51.328;12.324;2023-05-07T11:01:01;5.90;;;3.67;;
64075;SDS011;50327;51.328;12.324;2023-05-07T11:03:26;7.45;;;3.47;;
64075;SDS011;50327;51.328;12.324;2023-05-07T11:11:36;9.93;;;4.93;;
64075;SDS011;50327;51.328;12.324;2023-05-07T11:14:05;12.32;;;5.28;;
64075;SDS011;50327;51.328;12.324;2023-05-07T11:16:30;7.50;;;4.65;;
64075;SDS011;50327;51.328;12.324;2023-05-07T11:18:57;10.35;;;5.25;;
64075;SDS011;50327;51.328;12.324;2023-05-07T11:21:35;11.43;;;4.55;;
64075;SDS011;50327;51.328;12.324;2023-05-07T11:24:01;10.55;;;5.30;;
64075;SDS011;50327;51.328;12.324;2023-05-07T11:26:27;7.45;;;4.20;;
64075;SDS011;50327;51.328;12.324;2023-05-07T11:28:53;8.93;;;4.97;;
64075;SDS011;50327;51.328;12.324;2023-05-07T11:31:23;9.80;;;4.30;;
64075;SDS011;50327;51.328;12.324;2023-05-07T11:33:48;9.95;;;4.72;;
64075;SDS011;50327;51.328;12.324;2023-05-07T11:36:14;7.45;;;3.90;;
64075;SDS011;50327;51.328;12.324;2023-05-07T11:38:39;7.78;;;3.95;;
64075;SDS011;50327;51.328;12.324;2023-05-07T11:41:05;9.23;;;4.18;;
64075;SDS011;50327;51.328;12.324;2023-05-07T11:43:31;9.75;;;4.43;;
64075;SDS011;50327;51.328;12.324;2023-05-07T11:46:10;8.93;;;4.35;;
64075;SDS011;50327;51.328;12.324;2023-05-07T11:48:35;8.25;;;4.65;;
64075;SDS011;50327;51.328;12.324;2023-05-07T11:51:01;7.15;;;4.00;;
64075;SDS011;50327;51.328;12.324;2023-05-07T11:53:27;7.60;;;3.70;;
64075;SDS011;50327;51.328;12.324;2023-05-07T11:55:53;7.10;;;3.90;;
64075;SDS011;50327;51.328;12.324;2023-05-07T11:58:20;6.90;;;3.80;;
64075;SDS011;50327;51.328;12.324;2023-05-07T12:00:49;7.28;;;3.88;;
64075;SDS011;50327;51.328;12.324;2023-05-07T12:03:14;7.03;;;4.15;;
64075;SDS011;50327;51.328;12.324;2023-05-07T12:05:40;8.70;;;4.53;;
64075;SDS011;50327;51.328;12.324;2023-05-07T12:08:06;9.13;;;4.28;;
64075;SDS011;50327;51.328;12.324;2023-05-07T12:10:32;8.85;;;5.18;;
64075;SDS011;50327;51.328;12.324;2023-05-07T12:12:57;8.75;;;4.45;;
64075;SDS011;50327;51.328;12.324;2023-05-07T12:15:22;9.27;;;4.43;;
64075;SDS011;50327;51.328;12.324;2023-05-07T12:17:48;9.52;;;4.68;;
64075;SDS011;50327;51.328;12.324;2023-05-07T12:20:13;9.95;;;4.80;;
64075;SDS011;50327;51.328;12.324;2023-05-07T12:22:39;8.35;;;4.63;;
64075;SDS011;50327;51.328;12.324;2023-05-07T12:25:05;11.38;;;5.07;;
64075;SDS011;50327;51.328;12.324;2023-05-07T12:27:31;8.23;;;4.88;;
64075;SDS011;50327;51.328;12.324;2023-05-07T12:29:57;10.43;;;4.95;;
64075;SDS011;50327;51.328;12.324;2023-05-07T12:32:22;8.50;;;4.80;;
64075;SDS011;50327;51.328;12.324;2023-05-07T12:34:50;14.05;;;4.90;;
64075;SDS011;50327;51.328;12.324;2023-05-07T12:37:16;11.23;;;4.15;;
64075;SDS011;50327;51.328;12.324;2023-05-07T12:39:47;6.95;;;3.50;;
64075;SDS011;50327;51.328;12.324;2023-05-07T12:42:16;11.85;;;3.88;;
64075;SDS011;50327;51.328;12.324;2023-05-07T12:44:45;9.73;;;3.50;;
64075;SDS011;50327;51.328;12.324;2023-05-07T12:47:10;7.63;;;3.78;;
64075;SDS011;50327;51.328;12.324;2023-05-07T12:49:36;9.20;;;4.53;;
64075;SDS011;50327;51.328;12.324;2023-05-07T12:52:05;8.73;;;4.75;;
64075;SDS011;50327;51.328;12.324;2023-05-07T12:54:30;8.30;;;4.63;;
64075;SDS011;50327;51.328;12.324;2023-05-07T12:59:34;8.80;;;4.35;;
64075;SDS011;50327;51.328;12.324;2023-05-07T13:01:59;8.23;;;4.50;;
64075;SDS011;50327;51.328;12.324;2023-05-07T13:04:24;9.18;;;4.53;;
64075;SDS011;50327;51.328;12.324;2023-05-07T13:06:50;16.30;;;4.18;;
64075;SDS011;50327;51.328;12.324;2023-05-07T13:09:15;11.48;;;3.97;;
64075;SDS011;50327;51.328;12.324;2023-05-07T13:11:40;7.55;;;4.25;;
64075;SDS011;50327;51.328;12.324;2023-05-07T13:14:08;9.20;;;3.60;;
64075;SDS011;50327;51.328;12.324;2023-05-07T13:16:34;6.90;;;3.88;;
64075;SDS011;50327;51.328;12.324;2023-05-07T13:18:59;7.70;;;4.07;;
64075;SDS011;50327;51.328;12.324;2023-05-07T13:21:24;8.57;;;4.05;;
64075;SDS011;50327;51.328;12.324;2023-05-07T13:23:50;8.10;;;3.58;;
64075;SDS011;50327;51.328;12.324;2023-05-07T13:26:15;9.40;;;3.55;;
64075;SDS011;50327;51.328;12.324;2023-05-07T13:28:41;7.60;;;3.85;;
64075;SDS011;50327;51.328;12.324;2023-05-07T13:31:06;7.40;;;3.97;;
64075;SDS011;50327;51.328;12.324;2023-05-07T13:33:32;6.47;;;3.65;;
64075;SDS011;50327;51.328;12.324;2023-05-07T13:35:57;6.90;;;3.67;;
64075;SDS011;50327;51.328;12.324;2023-05-07T13:38:22;6.55;;;3.60;;
64075;SDS011;50327;51.328;12.324;2023-05-07T13:40:47;6.70;;;3.47;;
64075;SDS011;50327;51.328;12.324;2023-05-07T13:43:12;7.07;;;4.05;;
64075;SDS011;50327;51.328;12.324;2023-05-07T13:45:38;5.70;;;3.25;;
64075;SDS011;50327;51.328;12.324;2023-05-07T13:48:03;9.50;;;4.07;;
64075;SDS011;50327;51.328;12.324;2023-05-07T13:50:29;7.60;;;3.80;;
64075;SDS011;50327;51.328;12.324;2023-05-07T13:52:54;5.35;;;3.13;;
64075;SDS011;50327;51.328;12.324;2023-05-07T13:55:20;10.35;;;3.65;;
64075;SDS011;50327;51.328;12.324;2023-05-07T13:57:46;8.38;;;3.17;;
64075;SDS011;50327;51.328;12.324;2023-05-07T14:00:12;6.40;;;3.17;;
64075;SDS011;50327;51.328;12.324;2023-05-07T14:02:37;6.07;;;3.33;;
64075;SDS011;50327;51.328;12.324;2023-05-07T14:05:02;6.82;;;3.30;;
64075;SDS011;50327;51.328;12.324;2023-05-07T14:07:28;6.60;;;3.00;;
64075;SDS011;50327;51.328;12.324;2023-05-07T14:09:54;6.82;;;3.63;;
64075;SDS011;50327;51.328;12.324;2023-05-07T14:12:19;6.60;;;3.35;;
64075;SDS011;50327;51.328;12.324;2023-05-07T14:14:44;6.63;;;2.70;;
64075;SDS011;50327;51.328;12.324;2023-05-07T14:17:10;6.85;;;2.78;;
64075;SDS011;50327;51.328;12.324;2023-05-07T14:19:35;4.32;;;2.47;;
64075;SDS011;50327;51.328;12.324;2023-05-07T14:22:00;5.68;;;2.65;;
64075;SDS011;50327;51.328;12.324;2023-05-07T14:24:26;5.07;;;2.25;;
64075;SDS011;50327;51.328;12.324;2023-05-07T14:26:51;6.45;;;3.15;;
64075;SDS011;50327;51.328;12.324;2023-05-07T14:29:16;5.60;;;2.65;;
64075;SDS011;50327;51.328;12.324;2023-05-07T14:31:43;5.70;;;2.83;;